sensor_id;sensor_type;location;lat;lon;timestamp;pressure;altitude;pressure_sealevel;temperature;humidity
21742;BME280;11033;47.490;11.116;2023-01-15T00:01:36;92425.88;;;4.98;68.20
21742;BME280;11033;47.490;11.116;2023-01-15T00:04:04;92438.56;;;5.01;65.83
21742;BME280;11033;47.490;11.116;2023-01-15T00:06:30;92435.63;;;5.04;66.82
21742;BME280;11033;47.490;11.116;2023-01-15T00:08:56;92424.38;;;5.04;66.94
21742;BME280;11033;47.490;11.116;2023-01-15T00:11:22;92432.38;;;5.02;67.37
21742;BME280;11033;47.490;11.116;2023-01-15T00:13:48;92432.53;;;5.01;67.60
21742;BME280;11033;47.490;11.116;2023-01-15T00:16:16;92424.81;;;5.07;66.92
21742;BME280;11033;47.490;11.116;2023-01-15T00:18:42;92434.09;;;5.10;66.76
21742;BME280;11033;47.490;11.116;2023-01-15T00:21:11;92413.41;;;5.08;67.42
21742;BME280;11033;47.490;11.116;2023-01-15T00:23:38;92418.63;;;5.08;67.32
21742;BME280;11033;47.490;11.116;2023-01-15T00:26:27;92410.78;;;5.08;67.19
21742;BME280;11033;47.490;11.116;2023-01-15T00:29:11;92413.06;;;5.12;67.71
21742;BME280;11033;47.490;11.116;2023-01-15T00:31:36;92412.41;;;5.09;68.27
21742;BME280;11033;47.490;11.116;2023-01-15T00:34:02;92400.00;;;5.12;68.20
21742;BME280;11033;47.490;11.116;2023-01-15T00:36:28;92404.88;;;5.15;67.04
21742;BME280;11033;47.490;11.116;2023-01-15T00:38:53;92401.63;;;5.13;68.16
21742;BME280;11033;47.490;11.116;2023-01-15T00:41:19;92412.41;;;5.09;68.10
21742;BME280;11033;47.490;11.116;2023-01-15T00:43:44;92407.19;;;5.09;68.29
21742;BME280;11033;47.490;11.116;2023-01-15T00:46:09;92400.00;;;5.12;68.51
21742;BME280;11033;47.490;11.116;2023-01-15T00:48:35;92396.41;;;5.13;68.05
21742;BME280;11033;47.490;11.116;2023-01-15T00:51:02;92397.38;;;5.12;68.24
21742;BME280;11033;47.490;11.116;2023-01-15T00:53:27;92397.91;;;5.07;69.26
21742;BME280;11033;47.490;11.116;2023-01-15T00:55:53;92388.56;;;5.13;69.48
21742;BME280;11033;47.490;11.116;2023-01-15T00:58:18;92387.13;;;5.10;69.54
21742;BME280;11033;47.490;11.116;2023-01-15T01:00:44;92364.72;;;5.16;69.33
21742;BME280;11033;47.490;11.116;2023-01-15T01:03:10;92370.31;;;5.13;69.62
21742;BME280;11033;47.490;11.116;2023-01-15T01:05:35;92368.31;;;5.15;69.13
21742;BME280;11033;47.490;11.116;2023-01-15T01:08:00;92361.13;;;5.17;68.56
21742;BME280;11033;47.490;11.116;2023-01-15T01:10:26;92365.72;;;5.15;68.21
21742;BME280;11033;47.490;11.116;2023-01-15T01:12:52;92352.31;;;5.18;69.04
21742;BME280;11033;47.490;11.116;2023-01-15T01:15:19;92349.53;;;5.19;68.99
21742;BME280;11033;47.490;11.116;2023-01-15T01:17:45;92351.50;;;5.17;69.08
21742;BME280;11033;47.490;11.116;2023-01-15T01:20:16;92330.28;;;5.20;68.36
21742;BME280;11033;47.490;11.116;2023-01-15T01:22:41;92344.88;;;5.29;67.39
21742;BME280;11033;47.490;11.116;2023-01-15T01:25:07;92332.72;;;5.22;68.25
21742;BME280;11033;47.490;11.116;2023-01-15T01:27:33;92321.00;;;5.18;68.87
21742;BME280;11033;47.490;11.116;2023-01-15T01:29:58;92326.22;;;5.18;68.37
21742;BME280;11033;47.490;11.116;2023-01-15T01:32:24;92314.63;;;5.20;69.00
21742;BME280;11033;47.490;11.116;2023-01-15T01:34:49;92311.84;;;5.22;68.42
21742;BME280;11033;47.490;11.116;2023-01-15T01:37:14;92314.72;;;5.27;68.26
21742;BME280;11033;47.490;11.116;2023-01-15T01:39:40;92300.69;;;5.28;68.35
21742;BME280;11033;47.490;11.116;2023-01-15T01:42:11;92279.63;;;5.44;65.07
21742;BME280;11033;47.490;11.116;2023-01-15T01:47:06;92284.31;;;5.34;67.19
21742;BME280;11033;47.490;11.116;2023-01-15T01:49:32;92293.13;;;5.33;67.23
21742;BME280;11033;47.490;11.116;2023-01-15T01:52:02;92292.66;;;5.44;65.52
21742;BME280;11033;47.490;11.116;2023-01-15T01:54:29;92271.16;;;5.42;67.30
21742;BME280;11033;47.490;11.116;2023-01-15T01:56:56;92272.78;;;5.43;66.86
21742;BME280;11033;47.490;11.116;2023-01-15T01:59:23;92276.63;;;5.47;66.65
21742;BME280;11033;47.490;11.116;2023-01-15T02:01:50;92261.59;;;5.49;67.04
21742;BME280;11033;47.490;11.116;2023-01-15T02:04:17;92260.34;;;5.45;67.86
21742;BME280;11033;47.490;11.116;2023-01-15T02:06:43;92251.53;;;5.46;67.91
21742;BME280;11033;47.490;11.116;2023-01-15T02:09:09;92248.72;;;5.48;67.71
21742;BME280;11033;47.490;11.116;2023-01-15T02:11:34;92241.53;;;5.50;68.06
21742;BME280;11033;47.490;11.116;2023-01-15T02:14:24;92246.75;;;5.50;67.87
21742;BME280;11033;47.490;11.116;2023-01-15T02:22:39;92213.13;;;5.61;66.55
21742;BME280;11033;47.490;11.116;2023-01-15T02:25:23;92218.00;;;5.64;65.92
21742;BME280;11033;47.490;11.116;2023-01-15T02:28:03;92213.75;;;5.63;66.68
21742;BME280;11033;47.490;11.116;2023-01-15T02:30:35;92218.25;;;5.69;65.52
21742;BME280;11033;47.490;11.116;2023-01-15T02:33:10;92225.81;;;5.64;66.40
21742;BME280;11033;47.490;11.116;2023-01-15T02:35:51;92213.75;;;5.63;66.91
21742;BME280;11033;47.490;11.116;2023-01-15T02:38:21;92214.75;;;5.62;67.59
21742;BME280;11033;47.490;11.116;2023-01-15T02:40:49;92198.72;;;5.65;67.42
21742;BME280;11033;47.490;11.116;2023-01-15T02:43:16;92212.13;;;5.62;67.57
21742;BME280;11033;47.490;11.116;2023-01-15T02:45:46;92211.94;;;5.64;66.91
21742;BME280;11033;47.490;11.116;2023-01-15T02:48:15;92210.34;;;5.63;67.65
21742;BME280;11033;47.490;11.116;2023-01-15T02:50:45;92206.91;;;5.62;67.92
21742;BME280;11033;47.490;11.116;2023-01-15T02:53:17;92197.03;;;5.58;67.90
21742;BME280;11033;47.490;11.116;2023-01-15T02:55:46;92216.66;;;5.54;68.71
21742;BME280;11033;47.490;11.116;2023-01-15T02:58:15;92211.44;;;5.54;68.72
21742;BME280;11033;47.490;11.116;2023-01-15T03:00:44;92197.31;;;5.48;69.19
21742;BME280;11033;47.490;11.116;2023-01-15T03:03:15;92197.38;;;5.55;68.95
21742;BME280;11033;47.490;11.116;2023-01-15T03:05:59;92184.50;;;5.53;68.74
21742;BME280;11033;47.490;11.116;2023-01-15T03:08:27;92181.34;;;5.58;67.52
21742;BME280;11033;47.490;11.116;2023-01-15T03:11:11;92186.63;;;5.64;66.54
21742;BME280;11033;47.490;11.116;2023-01-15T03:14:04;92183.59;;;5.61;66.02
21742;BME280;11033;47.490;11.116;2023-01-15T03:16:36;92187.63;;;5.63;66.02
21742;BME280;11033;47.490;11.116;2023-01-15T03:19:18;92185.41;;;5.60;66.10
21742;BME280;11033;47.490;11.116;2023-01-15T03:21:49;92185.03;;;5.63;65.53
21742;BME280;11033;47.490;11.116;2023-01-15T03:24:32;92174.94;;;5.60;66.41
21742;BME280;11033;47.490;11.116;2023-01-15T03:27:00;92186.19;;;5.61;66.18
21742;BME280;11033;47.490;11.116;2023-01-15T03:29:28;92173.94;;;5.61;66.08
21742;BME280;11033;47.490;11.116;2023-01-15T03:31:55;92173.69;;;5.56;66.52
21742;BME280;11033;47.490;11.116;2023-01-15T03:34:21;92179.63;;;5.65;66.45
21742;BME280;11033;47.490;11.116;2023-01-15T03:36:47;92183.41;;;5.62;67.34
21742;BME280;11033;47.490;11.116;2023-01-15T03:39:12;92162.94;;;5.66;66.71
21742;BME280;11033;47.490;11.116;2023-01-15T03:41:47;92164.13;;;5.63;67.43
21742;BME280;11033;47.490;11.116;2023-01-15T03:52:09;92155.09;;;5.66;67.10
21742;BME280;11033;47.490;11.116;2023-01-15T03:54:47;92157.28;;;5.62;67.11
21742;BME280;11033;47.490;11.116;2023-01-15T03:57:23;92146.84;;;5.62;66.68
21742;BME280;11033;47.490;11.116;2023-01-15T03:59:54;92154.06;;;5.60;67.14
21742;BME280;11033;47.490;11.116;2023-01-15T04:02:23;92150.69;;;5.66;67.78
21742;BME280;11033;47.490;11.116;2023-01-15T04:04:50;92137.19;;;5.63;67.75
21742;BME280;11033;47.490;11.116;2023-01-15T04:07:18;92139.00;;;5.62;67.38
21742;BME280;11033;47.490;11.116;2023-01-15T04:09:43;92134.59;;;5.63;67.28
21742;BME280;11033;47.490;11.116;2023-01-15T04:12:09;92136.31;;;5.56;67.38
21742;BME280;11033;47.490;11.116;2023-01-15T04:14:34;92128.06;;;5.52;68.18
21742;BME280;11033;47.490;11.116;2023-01-15T04:17:00;92125.81;;;5.49;68.17
21742;BME280;11033;47.490;11.116;2023-01-15T04:19:25;92120.84;;;5.54;67.24
21742;BME280;11033;47.490;11.116;2023-01-15T04:21:50;92113.38;;;5.51;67.67
21742;BME280;11033;47.490;11.116;2023-01-15T04:24:15;92112.75;;;5.49;67.57
21742;BME280;11033;47.490;11.116;2023-01-15T04:26:41;92105.28;;;5.46;67.15
21742;BME280;11033;47.490;11.116;2023-01-15T04:29:06;92101.69;;;5.47;66.56
21742;BME280;11033;47.490;11.116;2023-01-15T04:31:31;92104.91;;;5.49;66.66
21742;BME280;11033;47.490;11.116;2023-01-15T04:33:58;92102.06;;;5.44;67.06
21742;BME280;11033;47.490;11.116;2023-01-15T04:36:23;92104.09;;;5.49;67.09
21742;BME280;11033;47.490;11.116;2023-01-15T04:38:48;92108.16;;;5.51;66.30
21742;BME280;11033;47.490;11.116;2023-01-15T04:41:14;92106.47;;;5.44;67.46
21742;BME280;11033;47.490;11.116;2023-01-15T04:43:57;92092.41;;;5.45;67.17
21742;BME280;11033;47.490;11.116;2023-01-15T04:46:38;92093.59;;;5.42;67.19
21742;BME280;11033;47.490;11.116;2023-01-15T04:49:06;92099.69;;;5.49;68.20
21742;BME280;11033;47.490;11.116;2023-01-15T04:51:32;92098.44;;;5.45;68.05
21742;BME280;11033;47.490;11.116;2023-01-15T04:53:57;92091.06;;;5.49;67.23
21742;BME280;11033;47.490;11.116;2023-01-15T04:56:23;92086.81;;;5.48;67.77
21742;BME280;11033;47.490;11.116;2023-01-15T04:58:48;92086.38;;;5.44;68.18
21742;BME280;11033;47.490;11.116;2023-01-15T05:01:15;92079.91;;;5.40;68.90
21742;BME280;11033;47.490;11.116;2023-01-15T05:03:41;92077.50;;;5.38;69.92
21742;BME280;11033;47.490;11.116;2023-01-15T05:06:07;92060.41;;;5.36;69.47
21742;BME280;11033;47.490;11.116;2023-01-15T05:08:33;92069.84;;;5.37;69.46
21742;BME280;11033;47.490;11.116;2023-01-15T05:11:02;92072.63;;;5.35;69.57
21742;BME280;11033;47.490;11.116;2023-01-15T05:13:29;92076.69;;;5.38;69.74
21742;BME280;11033;47.490;11.116;2023-01-15T05:15:56;92082.28;;;5.35;69.61
21742;BME280;11033;47.490;11.116;2023-01-15T05:18:21;92082.66;;;5.32;70.37
21742;BME280;11033;47.490;11.116;2023-01-15T05:20:47;92071.59;;;5.30;70.46
21742;BME280;11033;47.490;11.116;2023-01-15T05:23:12;92088.59;;;5.26;69.97
21742;BME280;11033;47.490;11.116;2023-01-15T05:25:37;92086.56;;;5.21;71.38
21742;BME280;11033;47.490;11.116;2023-01-15T05:28:03;92079.97;;;5.25;70.78
21742;BME280;11033;47.490;11.116;2023-01-15T05:30:28;92082.13;;;5.22;71.10
21742;BME280;11033;47.490;11.116;2023-01-15T05:32:54;92085.19;;;5.25;71.43
21742;BME280;11033;47.490;11.116;2023-01-15T05:35:19;92086.88;;;5.18;72.21
21742;BME280;11033;47.490;11.116;2023-01-15T05:37:44;92081.66;;;5.18;72.03
21742;BME280;11033;47.490;11.116;2023-01-15T05:40:10;92075.56;;;5.11;72.74
21742;BME280;11033;47.490;11.116;2023-01-15T05:42:35;92072.41;;;5.16;72.93
21742;BME280;11033;47.490;11.116;2023-01-15T05:45:01;92069.91;;;5.07;72.42
21742;BME280;11033;47.490;11.116;2023-01-15T05:47:26;92085.94;;;5.04;72.66
21742;BME280;11033;47.490;11.116;2023-01-15T05:49:51;92088.34;;;5.06;72.21
21742;BME280;11033;47.490;11.116;2023-01-15T05:52:16;92083.59;;;5.09;71.76
21742;BME280;11033;47.490;11.116;2023-01-15T05:54:42;92083.59;;;5.09;71.43
21742;BME280;11033;47.490;11.116;2023-01-15T05:57:10;92086.19;;;5.09;71.85
21742;BME280;11033;47.490;11.116;2023-01-15T05:59:36;92095.63;;;5.10;71.78
21742;BME280;11033;47.490;11.116;2023-01-15T06:02:02;92095.63;;;5.10;72.05
21742;BME280;11033;47.490;11.116;2023-01-15T06:04:27;92096.53;;;5.18;71.53
21742;BME280;11033;47.490;11.116;2023-01-15T06:06:55;92093.28;;;5.16;72.24
21742;BME280;11033;47.490;11.116;2023-01-15T06:09:21;92086.44;;;5.15;72.10
21742;BME280;11033;47.490;11.116;2023-01-15T06:11:47;92087.44;;;5.14;71.98
21742;BME280;11033;47.490;11.116;2023-01-15T06:14:13;92082.22;;;5.14;72.17
21742;BME280;11033;47.490;11.116;2023-01-15T06:16:39;92080.97;;;5.09;72.83
21742;BME280;11033;47.490;11.116;2023-01-15T06:19:05;92081.59;;;5.12;71.76
21742;BME280;11033;47.490;11.116;2023-01-15T06:21:32;92070.34;;;5.11;71.82
21742;BME280;11033;47.490;11.116;2023-01-15T06:23:57;92061.97;;;5.16;71.13
21742;BME280;11033;47.490;11.116;2023-01-15T06:26:23;92061.34;;;5.14;71.41
21742;BME280;11033;47.490;11.116;2023-01-15T06:28:48;92068.72;;;5.10;71.48
21742;BME280;11033;47.490;11.116;2023-01-15T06:31:16;92069.53;;;5.10;71.50
21742;BME280;11033;47.490;11.116;2023-01-15T06:33:42;92069.16;;;5.14;71.06
21742;BME280;11033;47.490;11.116;2023-01-15T06:36:14;92076.81;;;5.15;71.08
21742;BME280;11033;47.490;11.116;2023-01-15T06:38:39;92083.38;;;5.26;70.57
21742;BME280;11033;47.490;11.116;2023-01-15T06:41:07;92092.91;;;5.19;71.07
21742;BME280;11033;47.490;11.116;2023-01-15T06:43:54;92101.75;;;5.18;71.11
21742;BME280;11033;47.490;11.116;2023-01-15T06:46:48;92097.44;;;5.25;70.43
21742;BME280;11033;47.490;11.116;2023-01-15T06:49:34;92102.38;;;5.20;70.59
21742;BME280;11033;47.490;11.116;2023-01-15T06:52:01;92100.03;;;5.25;70.92
21742;BME280;11033;47.490;11.116;2023-01-15T06:54:26;92107.06;;;5.24;72.04
21742;BME280;11033;47.490;11.116;2023-01-15T06:56:52;92104.97;;;5.20;72.19
21742;BME280;11033;47.490;11.116;2023-01-15T06:59:18;92097.81;;;5.22;72.35
21742;BME280;11033;47.490;11.116;2023-01-15T07:01:44;92111.19;;;5.19;72.18
21742;BME280;11033;47.490;11.116;2023-01-15T07:04:09;92127.66;;;5.19;72.80
21742;BME280;11033;47.490;11.116;2023-01-15T07:06:34;92129.94;;;5.22;71.85
21742;BME280;11033;47.490;11.116;2023-01-15T07:09:00;92146.03;;;5.26;72.03
21742;BME280;11033;47.490;11.116;2023-01-15T07:11:25;92148.53;;;5.19;72.98
21742;BME280;11033;47.490;11.116;2023-01-15T07:13:50;92129.47;;;5.19;73.12
21742;BME280;11033;47.490;11.116;2023-01-15T07:16:29;92132.53;;;5.22;73.18
21742;BME280;11033;47.490;11.116;2023-01-15T07:18:55;92134.34;;;5.22;73.46
21742;BME280;11033;47.490;11.116;2023-01-15T07:21:21;92139.00;;;5.12;74.47
21742;BME280;11033;47.490;11.116;2023-01-15T07:23:46;92133.44;;;5.15;73.87
21742;BME280;11033;47.490;11.116;2023-01-15T07:26:12;92128.13;;;5.23;73.15
21742;BME280;11033;47.490;11.116;2023-01-15T07:28:37;92118.22;;;5.18;73.55
21742;BME280;11033;47.490;11.116;2023-01-15T07:31:02;92135.03;;;5.16;73.63
21742;BME280;11033;47.490;11.116;2023-01-15T07:33:27;92154.84;;;5.10;74.58
21742;BME280;11033;47.490;11.116;2023-01-15T07:35:54;92167.97;;;5.17;74.17
21742;BME280;11033;47.490;11.116;2023-01-15T07:38:20;92169.16;;;5.29;72.95
21742;BME280;11033;47.490;11.116;2023-01-15T07:40:45;92183.47;;;5.33;72.14
21742;BME280;11033;47.490;11.116;2023-01-15T07:43:31;92182.22;;;5.29;72.11
21742;BME280;11033;47.490;11.116;2023-01-15T07:46:15;92168.63;;;5.33;71.28
21742;BME280;11033;47.490;11.116;2023-01-15T07:48:58;92160.97;;;5.32;73.00
21742;BME280;11033;47.490;11.116;2023-01-15T07:51:42;92149.34;;;5.34;73.37
21742;BME280;11033;47.490;11.116;2023-01-15T07:54:08;92144.19;;;5.41;72.90
21742;BME280;11033;47.490;11.116;2023-01-15T07:56:33;92134.13;;;5.38;73.79
21742;BME280;11033;47.490;11.116;2023-01-15T07:58:58;92136.00;;;5.44;73.04
21742;BME280;11033;47.490;11.116;2023-01-15T08:01:24;92136.06;;;5.51;71.03
21742;BME280;11033;47.490;11.116;2023-01-15T08:03:49;92144.34;;;5.54;70.98
21742;BME280;11033;47.490;11.116;2023-01-15T08:06:14;92138.75;;;5.57;70.86
21742;BME280;11033;47.490;11.116;2023-01-15T08:08:39;92131.53;;;5.59;70.73
21742;BME280;11033;47.490;11.116;2023-01-15T08:11:04;92121.16;;;5.66;69.80
21742;BME280;11033;47.490;11.116;2023-01-15T08:13:49;92116.00;;;5.72;69.57
21742;BME280;11033;47.490;11.116;2023-01-15T08:16:36;92105.16;;;5.76;70.14
21742;BME280;11033;47.490;11.116;2023-01-15T08:19:01;92097.94;;;5.78;69.38
21742;BME280;11033;47.490;11.116;2023-01-15T08:21:27;92079.56;;;5.86;69.43
21742;BME280;11033;47.490;11.116;2023-01-15T08:23:52;92055.84;;;5.87;69.26
21742;BME280;11033;47.490;11.116;2023-01-15T08:26:18;92044.50;;;5.95;68.46
21742;BME280;11033;47.490;11.116;2023-01-15T08:28:43;92046.78;;;6.04;68.01
21742;BME280;11033;47.490;11.116;2023-01-15T08:31:08;92034.75;;;6.10;66.76
21742;BME280;11033;47.490;11.116;2023-01-15T08:33:34;92038.78;;;6.13;66.87
21742;BME280;11033;47.490;11.116;2023-01-15T08:35:59;92028.75;;;6.16;66.28
21742;BME280;11033;47.490;11.116;2023-01-15T08:38:24;92037.34;;;6.38;65.20
21742;BME280;11033;47.490;11.116;2023-01-15T08:40:53;92038.13;;;6.39;67.36
21742;BME280;11033;47.490;11.116;2023-01-15T08:43:26;92044.56;;;6.36;68.37
21742;BME280;11033;47.490;11.116;2023-01-15T08:45:55;92049.94;;;6.28;70.14
21742;BME280;11033;47.490;11.116;2023-01-15T08:48:22;92043.38;;;6.39;68.28
21742;BME280;11033;47.490;11.116;2023-01-15T08:50:47;92051.50;;;6.50;68.59
21742;BME280;11033;47.490;11.116;2023-01-15T08:53:14;92057.16;;;6.54;68.51
21742;BME280;11033;47.490;11.116;2023-01-15T08:55:39;92060.78;;;6.53;69.33
21742;BME280;11033;47.490;11.116;2023-01-15T08:58:05;92064.84;;;6.62;68.04
21742;BME280;11033;47.490;11.116;2023-01-15T09:00:30;92056.22;;;6.68;68.09
21742;BME280;11033;47.490;11.116;2023-01-15T09:02:56;92049.22;;;6.75;68.61
21742;BME280;11033;47.490;11.116;2023-01-15T09:05:21;92050.06;;;6.82;68.69
21742;BME280;11033;47.490;11.116;2023-01-15T09:07:46;92054.50;;;6.88;68.94
21742;BME280;11033;47.490;11.116;2023-01-15T09:10:12;92054.53;;;6.95;69.46
21742;BME280;11033;47.490;11.116;2023-01-15T09:12:37;92042.03;;;6.90;69.37
21742;BME280;11033;47.490;11.116;2023-01-15T09:15:02;92040.09;;;7.06;68.95
21742;BME280;11033;47.490;11.116;2023-01-15T09:17:28;92036.22;;;6.95;70.36
21742;BME280;11033;47.490;11.116;2023-01-15T09:19:54;92028.00;;;7.05;71.13
21742;BME280;11033;47.490;11.116;2023-01-15T09:22:19;92020.41;;;7.23;70.35
21742;BME280;11033;47.490;11.116;2023-01-15T09:24:45;92014.34;;;7.16;70.61
21742;BME280;11033;47.490;11.116;2023-01-15T09:27:11;92016.59;;;7.25;71.21
21742;BME280;11033;47.490;11.116;2023-01-15T09:29:36;92004.53;;;7.44;70.46
21742;BME280;11033;47.490;11.116;2023-01-15T09:32:01;92022.91;;;7.57;70.02
21742;BME280;11033;47.490;11.116;2023-01-15T09:34:27;92045.06;;;7.61;70.94
21742;BME280;11033;47.490;11.116;2023-01-15T09:36:52;92044.66;;;7.51;70.82
21742;BME280;11033;47.490;11.116;2023-01-15T09:39:17;92042.66;;;7.53;71.38
21742;BME280;11033;47.490;11.116;2023-01-15T09:41:58;92037.81;;;7.63;71.15
21742;BME280;11033;47.490;11.116;2023-01-15T09:45:03;92041.44;;;7.62;70.54
21742;BME280;11033;47.490;11.116;2023-01-15T09:50:37;92007.00;;;7.79;69.40
21742;BME280;11033;47.490;11.116;2023-01-15T09:55:51;92025.34;;;7.79;70.36
21742;BME280;11033;47.490;11.116;2023-01-15T09:58:24;92022.50;;;7.74;69.53
21742;BME280;11033;47.490;11.116;2023-01-15T10:00:51;92021.53;;;7.88;68.55
21742;BME280;11033;47.490;11.116;2023-01-15T10:03:41;92019.72;;;7.95;69.02
21742;BME280;11033;47.490;11.116;2023-01-15T10:06:26;92018.50;;;7.91;68.46
21742;BME280;11033;47.490;11.116;2023-01-15T10:09:07;92004.19;;;7.80;69.30
21742;BME280;11033;47.490;11.116;2023-01-15T10:11:45;92006.19;;;7.72;69.45
21742;BME280;11033;47.490;11.116;2023-01-15T10:14:38;92000.38;;;7.83;69.54
21742;BME280;11033;47.490;11.116;2023-01-15T10:17:25;92005.59;;;7.83;69.30
21742;BME280;11033;47.490;11.116;2023-01-15T10:19:51;92007.22;;;7.90;69.32
21742;BME280;11033;47.490;11.116;2023-01-15T10:22:33;92014.88;;;7.92;67.72
21742;BME280;11033;47.490;11.116;2023-01-15T10:25:08;92006.19;;;8.11;68.11
21742;BME280;11033;47.490;11.116;2023-01-15T10:27:40;92001.94;;;8.23;67.97
21742;BME280;11033;47.490;11.116;2023-01-15T10:30:33;91998.09;;;8.39;67.06
21742;BME280;11033;47.490;11.116;2023-01-15T10:33:27;91993.44;;;8.61;66.08
21742;BME280;11033;47.490;11.116;2023-01-15T10:35:59;91994.63;;;8.65;60.98
21742;BME280;11033;47.490;11.116;2023-01-15T10:46:49;91998.41;;;9.27;61.26
21742;BME280;11033;47.490;11.116;2023-01-15T10:49:17;91996.34;;;9.36;59.88
21742;BME280;11033;47.490;11.116;2023-01-15T10:51:46;91991.81;;;9.49;60.54
21742;BME280;11033;47.490;11.116;2023-01-15T10:54:32;92005.91;;;9.62;62.06
21742;BME280;11033;47.490;11.116;2023-01-15T10:57:08;91999.88;;;9.54;59.92
21742;BME280;11033;47.490;11.116;2023-01-15T10:59:38;91994.63;;;9.54;61.53
21742;BME280;11033;47.490;11.116;2023-01-15T11:02:31;91993.94;;;9.66;60.13
21742;BME280;11033;47.490;11.116;2023-01-15T11:04:57;91988.81;;;9.77;59.79
21742;BME280;11033;47.490;11.116;2023-01-15T11:07:38;91980.28;;;9.82;60.12
21742;BME280;11033;47.490;11.116;2023-01-15T11:10:07;91986.72;;;9.86;60.53
21742;BME280;11033;47.490;11.116;2023-01-15T11:12:38;91985.28;;;9.90;58.10
21742;BME280;11033;47.490;11.116;2023-01-15T11:15:24;91985.44;;;9.95;58.80
21742;BME280;11033;47.490;11.116;2023-01-15T11:18:14;91981.31;;;10.06;58.85
21742;BME280;11033;47.490;11.116;2023-01-15T11:21:01;91996.28;;;10.05;56.48
21742;BME280;11033;47.490;11.116;2023-01-15T11:23:27;92005.94;;;10.11;57.71
21742;BME280;11033;47.490;11.116;2023-01-15T11:25:53;92011.38;;;10.16;58.65
21742;BME280;11033;47.490;11.116;2023-01-15T11:28:37;91998.06;;;10.11;59.08
21742;BME280;11033;47.490;11.116;2023-01-15T11:31:09;92010.34;;;10.17;59.99
21742;BME280;11033;47.490;11.116;2023-01-15T11:33:35;92016.19;;;10.20;60.55
21742;BME280;11033;47.490;11.116;2023-01-15T11:36:04;92009.38;;;9.87;59.29
21742;BME280;11033;47.490;11.116;2023-01-15T11:38:44;92012.94;;;9.99;58.83
21742;BME280;11033;47.490;11.116;2023-01-15T11:44:13;92017.00;;;9.95;58.33
21742;BME280;11033;47.490;11.116;2023-01-15T11:46:58;92021.03;;;9.98;57.90
21742;BME280;11033;47.490;11.116;2023-01-15T11:49:52;92045.47;;;10.05;59.72
21742;BME280;11033;47.490;11.116;2023-01-15T11:52:41;92045.50;;;10.30;60.12
21742;BME280;11033;47.490;11.116;2023-01-15T11:55:16;92035.56;;;10.32;60.00
21742;BME280;11033;47.490;11.116;2023-01-15T11:57:43;92043.72;;;10.24;61.17
21742;BME280;11033;47.490;11.116;2023-01-15T12:00:23;92064.19;;;10.22;61.37
21742;BME280;11033;47.490;11.116;2023-01-15T12:02:56;92078.44;;;10.07;62.48
21742;BME280;11033;47.490;11.116;2023-01-15T12:05:27;92078.44;;;10.07;63.28
21742;BME280;11033;47.490;11.116;2023-01-15T12:07:56;92082.13;;;10.00;63.34
21742;BME280;11033;47.490;11.116;2023-01-15T12:10:25;92087.09;;;9.83;62.74
21742;BME280;11033;47.490;11.116;2023-01-15T12:22:15;92128.16;;;9.33;64.47
21742;BME280;11033;47.490;11.116;2023-01-15T12:35:40;92187.25;;;8.51;69.22
21742;BME280;11033;47.490;11.116;2023-01-15T12:38:12;92195.22;;;8.16;71.68
21742;BME280;11033;47.490;11.116;2023-01-15T12:40:49;92220.22;;;8.06;72.69
21742;BME280;11033;47.490;11.116;2023-01-15T12:43:24;92236.56;;;8.01;73.69
21742;BME280;11033;47.490;11.116;2023-01-15T12:46:28;92257.44;;;7.81;73.72
21742;BME280;11033;47.490;11.116;2023-01-15T12:49:14;92266.41;;;7.59;74.46
21742;BME280;11033;47.490;11.116;2023-01-15T12:51:49;92266.34;;;7.52;75.79
21742;BME280;11033;47.490;11.116;2023-01-15T12:54:22;92267.72;;;7.42;75.65
21742;BME280;11033;47.490;11.116;2023-01-15T12:56:59;92275.59;;;7.48;74.95
21742;BME280;11033;47.490;11.116;2023-01-15T12:59:36;92274.00;;;7.47;73.72
21742;BME280;11033;47.490;11.116;2023-01-15T13:02:35;92288.06;;;7.40;75.68
21742;BME280;11033;47.490;11.116;2023-01-15T13:05:20;92291.97;;;7.22;78.04
21742;BME280;11033;47.490;11.116;2023-01-15T13:07:55;92293.84;;;7.07;77.90
21742;BME280;11033;47.490;11.116;2023-01-15T13:10:25;92296.03;;;7.04;77.85
21742;BME280;11033;47.490;11.116;2023-01-15T13:12:53;92311.88;;;6.95;79.42
21742;BME280;11033;47.490;11.116;2023-01-15T13:15:20;92307.50;;;7.03;77.50
21742;BME280;11033;47.490;11.116;2023-01-15T13:18:07;92309.28;;;6.74;79.24
21742;BME280;11033;47.490;11.116;2023-01-15T13:20:46;92314.94;;;6.78;79.66
21742;BME280;11033;47.490;11.116;2023-01-15T13:23:25;92318.88;;;6.67;81.01
21742;BME280;11033;47.490;11.116;2023-01-15T13:28:54;92324.88;;;6.61;81.24
21742;BME280;11033;47.490;11.116;2023-01-15T13:36:45;92349.06;;;6.12;83.09
21742;BME280;11033;47.490;11.116;2023-01-15T13:39:21;92362.81;;;6.35;81.17
21742;BME280;11033;47.490;11.116;2023-01-15T13:41:51;92372.94;;;6.09;81.97
21742;BME280;11033;47.490;11.116;2023-01-15T13:44:38;92371.84;;;6.18;81.82
21742;BME280;11033;47.490;11.116;2023-01-15T13:47:12;92380.97;;;6.08;82.74
21742;BME280;11033;47.490;11.116;2023-01-15T13:49:47;92387.75;;;6.02;81.68
21742;BME280;11033;47.490;11.116;2023-01-15T13:52:21;92411.06;;;5.89;82.13
21742;BME280;11033;47.490;11.116;2023-01-15T13:54:48;92407.06;;;5.63;84.14
21742;BME280;11033;47.490;11.116;2023-01-15T13:57:22;92423.09;;;5.60;84.53
21742;BME280;11033;47.490;11.116;2023-01-15T13:59:48;92437.56;;;5.48;83.42
21742;BME280;11033;47.490;11.116;2023-01-15T14:02:29;92464.03;;;5.45;82.94
21742;BME280;11033;47.490;11.116;2023-01-15T14:04:55;92457.13;;;5.67;79.55
21742;BME280;11033;47.490;11.116;2023-01-15T14:07:32;92467.38;;;5.54;77.65
21742;BME280;11033;47.490;11.116;2023-01-15T14:15:43;92485.28;;;5.42;76.94
21742;BME280;11033;47.490;11.116;2023-01-15T14:18:44;92493.16;;;5.34;76.63
21742;BME280;11033;47.490;11.116;2023-01-15T14:29:29;92498.84;;;5.15;74.91
21742;BME280;11033;47.490;11.116;2023-01-15T14:35:01;92525.44;;;5.10;72.56
21742;BME280;11033;47.490;11.116;2023-01-15T14:37:31;92515.13;;;5.17;70.47